sensor_id;sensor_type;location;lat;lon;timestamp;temperature;humidity
7842;DHT22;3966;51.052;13.820;2022-10-16T00:01:17;16.50;99.90
7842;DHT22;3966;51.052;13.820;2022-10-16T00:03:44;16.50;99.90
7842;DHT22;3966;51.052;13.820;2022-10-16T00:06:11;16.50;99.90
7842;DHT22;3966;51.052;13.820;2022-10-16T00:08:37;16.50;99.90
7842;DHT22;3966;51.052;13.820;2022-10-16T00:11:10;16.50;99.90
7842;DHT22;3966;51.052;13.820;2022-10-16T00:13:38;16.50;99.90
7842;DHT22;3966;51.052;13.820;2022-10-16T00:16:04;16.50;99.90
7842;DHT22;3966;51.052;13.820;2022-10-16T00:18:30;16.50;99.90
7842;DHT22;3966;51.052;13.820;2022-10-16T00:21:02;16.50;99.90
7842;DHT22;3966;51.052;13.820;2022-10-16T00:23:27;16.10;99.90
7842;DHT22;3966;51.052;13.820;2022-10-16T00:25:57;16.10;99.90
7842;DHT22;3966;51.052;13.820;2022-10-16T00:28:23;16.20;99.90
7842;DHT22;3966;51.052;13.820;2022-10-16T00:30:49;16.30;99.90
7842;DHT22;3966;51.052;13.820;2022-10-16T00:33:15;16.40;99.90
7842;DHT22;3966;51.052;13.820;2022-10-16T00:35:40;16.40;99.90
7842;DHT22;3966;51.052;13.820;2022-10-16T00:38:06;16.40;99.90
7842;DHT22;3966;51.052;13.820;2022-10-16T00:40:31;16.40;99.90
7842;DHT22;3966;51.052;13.820;2022-10-16T00:42:57;16.40;99.90
7842;DHT22;3966;51.052;13.820;2022-10-16T00:45:23;16.40;99.90
7842;DHT22;3966;51.052;13.820;2022-10-16T00:47:50;16.40;99.90
7842;DHT22;3966;51.052;13.820;2022-10-16T00:50:30;16.50;99.90
7842;DHT22;3966;51.052;13.820;2022-10-16T00:52:57;16.50;99.90
7842;DHT22;3966;51.052;13.820;2022-10-16T00:55:24;16.50;99.90
7842;DHT22;3966;51.052;13.820;2022-10-16T00:57:50;16.40;99.90
7842;DHT22;3966;51.052;13.820;2022-10-16T01:00:19;16.40;99.90
7842;DHT22;3966;51.052;13.820;2022-10-16T01:02:52;16.40;99.90
7842;DHT22;3966;51.052;13.820;2022-10-16T01:05:19;16.40;99.90
7842;DHT22;3966;51.052;13.820;2022-10-16T01:13:12;16.40;99.90
7842;DHT22;3966;51.052;13.820;2022-10-16T01:20:59;16.40;99.90
7842;DHT22;3966;51.052;13.820;2022-10-16T01:26:15;16.40;99.90
7842;DHT22;3966;51.052;13.820;2022-10-16T01:28:57;16.40;99.90
7842;DHT22;3966;51.052;13.820;2022-10-16T01:31:30;16.50;99.90
7842;DHT22;3966;51.052;13.820;2022-10-16T01:34:10;16.40;99.90
7842;DHT22;3966;51.052;13.820;2022-10-16T01:36:41;16.40;99.90
7842;DHT22;3966;51.052;13.820;2022-10-16T01:39:10;16.50;99.90
7842;DHT22;3966;51.052;13.820;2022-10-16T01:41:43;16.50;99.90
7842;DHT22;3966;51.052;13.820;2022-10-16T01:44:16;16.50;99.90
7842;DHT22;3966;51.052;13.820;2022-10-16T01:46:46;16.50;99.90
7842;DHT22;3966;51.052;13.820;2022-10-16T01:49:13;16.50;99.90
7842;DHT22;3966;51.052;13.820;2022-10-16T01:51:39;16.50;99.90
7842;DHT22;3966;51.052;13.820;2022-10-16T01:54:07;16.50;99.90
7842;DHT22;3966;51.052;13.820;2022-10-16T01:56:34;16.60;99.90
7842;DHT22;3966;51.052;13.820;2022-10-16T01:59:05;16.60;99.90
7842;DHT22;3966;51.052;13.820;2022-10-16T02:01:33;16.60;99.90
7842;DHT22;3966;51.052;13.820;2022-10-16T02:04:03;16.60;99.90
7842;DHT22;3966;51.052;13.820;2022-10-16T02:06:31;16.50;99.90
7842;DHT22;3966;51.052;13.820;2022-10-16T02:08:57;16.50;99.90
7842;DHT22;3966;51.052;13.820;2022-10-16T02:11:22;16.50;99.90
7842;DHT22;3966;51.052;13.820;2022-10-16T02:13:51;16.50;99.90
7842;DHT22;3966;51.052;13.820;2022-10-16T02:16:18;16.50;99.90
7842;DHT22;3966;51.052;13.820;2022-10-16T02:18:44;16.50;99.90
7842;DHT22;3966;51.052;13.820;2022-10-16T02:21:28;16.50;99.90
7842;DHT22;3966;51.052;13.820;2022-10-16T02:26:35;16.60;99.90
7842;DHT22;3966;51.052;13.820;2022-10-16T02:29:08;16.70;99.90
7842;DHT22;3966;51.052;13.820;2022-10-16T02:31:38;16.60;99.90
7842;DHT22;3966;51.052;13.820;2022-10-16T02:34:06;16.70;99.90
7842;DHT22;3966;51.052;13.820;2022-10-16T02:36:34;16.70;99.90
7842;DHT22;3966;51.052;13.820;2022-10-16T02:39:01;16.70;99.90
7842;DHT22;3966;51.052;13.820;2022-10-16T02:41:29;16.70;99.90
7842;DHT22;3966;51.052;13.820;2022-10-16T02:43:54;16.70;99.90
7842;DHT22;3966;51.052;13.820;2022-10-16T02:46:20;16.70;99.90
7842;DHT22;3966;51.052;13.820;2022-10-16T02:48:46;16.70;99.90
7842;DHT22;3966;51.052;13.820;2022-10-16T02:51:12;16.70;99.90
7842;DHT22;3966;51.052;13.820;2022-10-16T02:53:38;16.80;99.90
7842;DHT22;3966;51.052;13.820;2022-10-16T02:56:03;16.80;99.90
7842;DHT22;3966;51.052;13.820;2022-10-16T02:58:29;16.80;99.90
7842;DHT22;3966;51.052;13.820;2022-10-16T03:00:55;16.80;99.90
7842;DHT22;3966;51.052;13.820;2022-10-16T03:03:20;16.80;99.90
7842;DHT22;3966;51.052;13.820;2022-10-16T03:05:46;16.80;99.90
7842;DHT22;3966;51.052;13.820;2022-10-16T03:08:12;16.80;99.90
7842;DHT22;3966;51.052;13.820;2022-10-16T03:10:38;16.80;99.90
7842;DHT22;3966;51.052;13.820;2022-10-16T03:13:03;16.80;99.90
7842;DHT22;3966;51.052;13.820;2022-10-16T03:15:29;16.80;99.90
7842;DHT22;3966;51.052;13.820;2022-10-16T03:17:57;16.80;99.90
7842;DHT22;3966;51.052;13.820;2022-10-16T03:20:22;16.80;99.90
7842;DHT22;3966;51.052;13.820;2022-10-16T03:22:48;16.80;99.90
7842;DHT22;3966;51.052;13.820;2022-10-16T03:25:13;16.80;99.90
7842;DHT22;3966;51.052;13.820;2022-10-16T03:27:39;16.90;99.90
7842;DHT22;3966;51.052;13.820;2022-10-16T03:30:05;16.80;99.90
7842;DHT22;3966;51.052;13.820;2022-10-16T03:32:30;16.80;99.90
7842;DHT22;3966;51.052;13.820;2022-10-16T03:34:56;16.80;99.90
7842;DHT22;3966;51.052;13.820;2022-10-16T03:37:22;16.80;99.90
7842;DHT22;3966;51.052;13.820;2022-10-16T03:39:47;16.80;99.90
7842;DHT22;3966;51.052;13.820;2022-10-16T03:42:13;16.80;99.90
7842;DHT22;3966;51.052;13.820;2022-10-16T03:44:38;16.80;99.90
7842;DHT22;3966;51.052;13.820;2022-10-16T03:47:04;16.80;99.90
7842;DHT22;3966;51.052;13.820;2022-10-16T03:49:29;16.80;99.90
7842;DHT22;3966;51.052;13.820;2022-10-16T03:51:55;16.80;99.90
7842;DHT22;3966;51.052;13.820;2022-10-16T03:54:21;16.80;99.90
7842;DHT22;3966;51.052;13.820;2022-10-16T03:56:47;16.80;99.90
7842;DHT22;3966;51.052;13.820;2022-10-16T03:59:13;16.80;99.90
7842;DHT22;3966;51.052;13.820;2022-10-16T04:01:38;16.80;99.90
7842;DHT22;3966;51.052;13.820;2022-10-16T04:04:04;16.80;99.90
7842;DHT22;3966;51.052;13.820;2022-10-16T04:06:29;16.80;99.90
7842;DHT22;3966;51.052;13.820;2022-10-16T04:08:55;16.80;99.90
7842;DHT22;3966;51.052;13.820;2022-10-16T04:11:21;16.80;99.90
7842;DHT22;3966;51.052;13.820;2022-10-16T04:13:47;16.70;99.90
7842;DHT22;3966;51.052;13.820;2022-10-16T04:16:12;16.80;99.90
7842;DHT22;3966;51.052;13.820;2022-10-16T04:18:38;16.80;99.90
7842;DHT22;3966;51.052;13.820;2022-10-16T04:21:04;16.70;99.90
7842;DHT22;3966;51.052;13.820;2022-10-16T04:23:31;16.80;99.90
7842;DHT22;3966;51.052;13.820;2022-10-16T04:25:56;16.70;99.90
7842;DHT22;3966;51.052;13.820;2022-10-16T04:28:22;16.80;99.90
7842;DHT22;3966;51.052;13.820;2022-10-16T04:30:47;16.70;99.90
7842;DHT22;3966;51.052;13.820;2022-10-16T04:33:13;16.70;99.90
7842;DHT22;3966;51.052;13.820;2022-10-16T04:35:38;16.70;99.90
7842;DHT22;3966;51.052;13.820;2022-10-16T04:38:04;16.70;99.90
7842;DHT22;3966;51.052;13.820;2022-10-16T04:40:30;16.70;99.90
7842;DHT22;3966;51.052;13.820;2022-10-16T04:42:58;16.60;99.90
7842;DHT22;3966;51.052;13.820;2022-10-16T04:45:24;16.70;99.90
7842;DHT22;3966;51.052;13.820;2022-10-16T04:47:49;16.60;99.90
7842;DHT22;3966;51.052;13.820;2022-10-16T04:50:15;16.70;99.90
7842;DHT22;3966;51.052;13.820;2022-10-16T04:52:41;16.60;99.90
7842;DHT22;3966;51.052;13.820;2022-10-16T04:55:06;16.70;99.90
7842;DHT22;3966;51.052;13.820;2022-10-16T04:57:32;16.70;99.90
7842;DHT22;3966;51.052;13.820;2022-10-16T04:59:58;16.70;99.90
7842;DHT22;3966;51.052;13.820;2022-10-16T05:02:24;16.60;99.90
7842;DHT22;3966;51.052;13.820;2022-10-16T05:04:51;16.70;99.90
7842;DHT22;3966;51.052;13.820;2022-10-16T05:07:16;16.60;99.90
7842;DHT22;3966;51.052;13.820;2022-10-16T05:09:42;16.60;99.90
7842;DHT22;3966;51.052;13.820;2022-10-16T05:12:08;16.60;99.90
7842;DHT22;3966;51.052;13.820;2022-10-16T05:14:33;16.60;99.90
7842;DHT22;3966;51.052;13.820;2022-10-16T05:17:00;16.60;99.90
7842;DHT22;3966;51.052;13.820;2022-10-16T05:19:25;16.60;99.90
7842;DHT22;3966;51.052;13.820;2022-10-16T05:21:51;16.60;99.90
7842;DHT22;3966;51.052;13.820;2022-10-16T05:24:16;16.50;99.90
7842;DHT22;3966;51.052;13.820;2022-10-16T05:26:42;16.60;99.90
7842;DHT22;3966;51.052;13.820;2022-10-16T05:29:08;16.60;99.90
7842;DHT22;3966;51.052;13.820;2022-10-16T05:31:34;16.60;99.90
7842;DHT22;3966;51.052;13.820;2022-10-16T05:34:00;16.60;99.90
7842;DHT22;3966;51.052;13.820;2022-10-16T05:36:26;16.70;99.90
7842;DHT22;3966;51.052;13.820;2022-10-16T05:38:51;16.60;99.90
7842;DHT22;3966;51.052;13.820;2022-10-16T05:41:18;16.70;99.90
7842;DHT22;3966;51.052;13.820;2022-10-16T05:43:49;16.70;99.90
7842;DHT22;3966;51.052;13.820;2022-10-16T05:46:15;16.60;99.90
7842;DHT22;3966;51.052;13.820;2022-10-16T05:48:41;16.70;99.90
7842;DHT22;3966;51.052;13.820;2022-10-16T05:51:09;16.70;99.90
7842;DHT22;3966;51.052;13.820;2022-10-16T05:53:37;16.70;99.90
7842;DHT22;3966;51.052;13.820;2022-10-16T05:56:04;16.70;99.90
7842;DHT22;3966;51.052;13.820;2022-10-16T05:58:35;16.70;99.90
7842;DHT22;3966;51.052;13.820;2022-10-16T06:01:07;16.70;99.90
7842;DHT22;3966;51.052;13.820;2022-10-16T06:03:33;16.70;99.90
7842;DHT22;3966;51.052;13.820;2022-10-16T06:05:59;16.70;99.90
7842;DHT22;3966;51.052;13.820;2022-10-16T06:08:24;16.80;99.90
7842;DHT22;3966;51.052;13.820;2022-10-16T06:11:01;16.70;99.90
7842;DHT22;3966;51.052;13.820;2022-10-16T06:13:27;16.70;99.90
7842;DHT22;3966;51.052;13.820;2022-10-16T06:15:52;16.80;99.90
7842;DHT22;3966;51.052;13.820;2022-10-16T06:18:18;16.70;99.90
7842;DHT22;3966;51.052;13.820;2022-10-16T06:20:43;16.70;99.90
7842;DHT22;3966;51.052;13.820;2022-10-16T06:23:09;16.70;99.90
7842;DHT22;3966;51.052;13.820;2022-10-16T06:25:34;16.80;99.90
7842;DHT22;3966;51.052;13.820;2022-10-16T06:28:00;16.80;99.90
7842;DHT22;3966;51.052;13.820;2022-10-16T06:30:25;16.80;99.90
7842;DHT22;3966;51.052;13.820;2022-10-16T06:32:51;16.90;99.90
7842;DHT22;3966;51.052;13.820;2022-10-16T06:35:16;16.90;99.90
7842;DHT22;3966;51.052;13.820;2022-10-16T06:37:42;16.90;99.90
7842;DHT22;3966;51.052;13.820;2022-10-16T06:40:08;16.90;99.90
7842;DHT22;3966;51.052;13.820;2022-10-16T06:42:33;17.00;99.90
7842;DHT22;3966;51.052;13.820;2022-10-16T06:44:59;16.90;99.90
7842;DHT22;3966;51.052;13.820;2022-10-16T06:47:24;16.90;99.90
7842;DHT22;3966;51.052;13.820;2022-10-16T06:49:50;17.00;99.90
7842;DHT22;3966;51.052;13.820;2022-10-16T06:52:15;17.00;99.90
7842;DHT22;3966;51.052;13.820;2022-10-16T06:54:41;17.00;99.90
7842;DHT22;3966;51.052;13.820;2022-10-16T06:57:07;17.00;99.90
7842;DHT22;3966;51.052;13.820;2022-10-16T06:59:32;17.10;99.90
7842;DHT22;3966;51.052;13.820;2022-10-16T07:01:58;17.20;99.90
7842;DHT22;3966;51.052;13.820;2022-10-16T07:04:23;17.20;99.90
7842;DHT22;3966;51.052;13.820;2022-10-16T07:06:49;17.30;99.90
7842;DHT22;3966;51.052;13.820;2022-10-16T07:09:15;17.30;99.90
7842;DHT22;3966;51.052;13.820;2022-10-16T07:11:41;17.30;99.90
7842;DHT22;3966;51.052;13.820;2022-10-16T07:14:18;17.30;99.90
7842;DHT22;3966;51.052;13.820;2022-10-16T07:16:44;17.20;99.90
7842;DHT22;3966;51.052;13.820;2022-10-16T07:19:10;17.20;99.90
7842;DHT22;3966;51.052;13.820;2022-10-16T07:21:37;17.20;99.90
7842;DHT22;3966;51.052;13.820;2022-10-16T07:24:05;17.10;99.90
7842;DHT22;3966;51.052;13.820;2022-10-16T07:26:34;17.20;99.90
7842;DHT22;3966;51.052;13.820;2022-10-16T07:28:59;17.20;99.90
7842;DHT22;3966;51.052;13.820;2022-10-16T07:31:26;17.30;99.90
7842;DHT22;3966;51.052;13.820;2022-10-16T07:33:52;17.30;99.90
7842;DHT22;3966;51.052;13.820;2022-10-16T07:36:19;17.30;99.90
7842;DHT22;3966;51.052;13.820;2022-10-16T07:38:45;17.30;99.90
7842;DHT22;3966;51.052;13.820;2022-10-16T07:41:13;17.30;99.90
7842;DHT22;3966;51.052;13.820;2022-10-16T07:43:39;17.40;99.90
7842;DHT22;3966;51.052;13.820;2022-10-16T07:46:05;17.40;99.90
7842;DHT22;3966;51.052;13.820;2022-10-16T07:48:32;17.40;99.90
7842;DHT22;3966;51.052;13.820;2022-10-16T07:50:59;17.40;99.90
7842;DHT22;3966;51.052;13.820;2022-10-16T07:53:26;17.40;99.90
7842;DHT22;3966;51.052;13.820;2022-10-16T07:55:54;17.50;99.90
7842;DHT22;3966;51.052;13.820;2022-10-16T07:58:21;17.50;99.90
7842;DHT22;3966;51.052;13.820;2022-10-16T08:00:47;17.50;99.90
7842;DHT22;3966;51.052;13.820;2022-10-16T08:03:12;17.60;99.90
7842;DHT22;3966;51.052;13.820;2022-10-16T08:05:38;17.60;99.90
7842;DHT22;3966;51.052;13.820;2022-10-16T08:08:04;17.70;99.90
7842;DHT22;3966;51.052;13.820;2022-10-16T08:10:29;17.70;99.90
7842;DHT22;3966;51.052;13.820;2022-10-16T08:12:55;17.90;99.90
7842;DHT22;3966;51.052;13.820;2022-10-16T08:15:21;17.90;99.90
7842;DHT22;3966;51.052;13.820;2022-10-16T08:18:01;18.00;99.90
7842;DHT22;3966;51.052;13.820;2022-10-16T08:20:28;18.10;99.90
7842;DHT22;3966;51.052;13.820;2022-10-16T08:22:54;18.10;99.90
7842;DHT22;3966;51.052;13.820;2022-10-16T08:25:21;18.10;99.90
7842;DHT22;3966;51.052;13.820;2022-10-16T08:27:47;18.10;99.90
7842;DHT22;3966;51.052;13.820;2022-10-16T08:30:13;18.20;99.90
7842;DHT22;3966;51.052;13.820;2022-10-16T08:32:39;18.30;99.90
7842;DHT22;3966;51.052;13.820;2022-10-16T08:35:06;18.30;99.90
7842;DHT22;3966;51.052;13.820;2022-10-16T08:37:32;18.30;99.90
7842;DHT22;3966;51.052;13.820;2022-10-16T08:39:58;18.40;99.90
7842;DHT22;3966;51.052;13.820;2022-10-16T08:48:17;18.80;99.90
7842;DHT22;3966;51.052;13.820;2022-10-16T08:50:43;19.00;99.90
7842;DHT22;3966;51.052;13.820;2022-10-16T08:53:16;19.00;99.90
7842;DHT22;3966;51.052;13.820;2022-10-16T08:55:54;19.10;99.90
7842;DHT22;3966;51.052;13.820;2022-10-16T08:58:27;19.10;99.90
7842;DHT22;3966;51.052;13.820;2022-10-16T09:01:01;19.10;99.90
7842;DHT22;3966;51.052;13.820;2022-10-16T09:09:59;19.50;99.90
7842;DHT22;3966;51.052;13.820;2022-10-16T09:12:46;19.50;99.90
7842;DHT22;3966;51.052;13.820;2022-10-16T09:15:46;19.60;99.90
7842;DHT22;3966;51.052;13.820;2022-10-16T09:23:29;19.80;99.90
7842;DHT22;3966;51.052;13.820;2022-10-16T09:25:58;20.00;99.90
7842;DHT22;3966;51.052;13.820;2022-10-16T09:28:23;20.10;99.90
7842;DHT22;3966;51.052;13.820;2022-10-16T09:30:50;20.20;99.90
7842;DHT22;3966;51.052;13.820;2022-10-16T09:33:19;20.40;99.90
7842;DHT22;3966;51.052;13.820;2022-10-16T09:35:50;20.40;99.90
7842;DHT22;3966;51.052;13.820;2022-10-16T09:40:52;20.50;99.90
7842;DHT22;3966;51.052;13.820;2022-10-16T09:43:32;20.40;99.90
7842;DHT22;3966;51.052;13.820;2022-10-16T09:46:02;20.40;99.90
7842;DHT22;3966;51.052;13.820;2022-10-16T09:51:02;20.40;99.90
7842;DHT22;3966;51.052;13.820;2022-10-16T09:53:59;20.50;99.90
7842;DHT22;3966;51.052;13.820;2022-10-16T09:56:33;20.60;99.90
7842;DHT22;3966;51.052;13.820;2022-10-16T09:59:08;20.50;99.90
7842;DHT22;3966;51.052;13.820;2022-10-16T10:04:10;20.70;99.90
7842;DHT22;3966;51.052;13.820;2022-10-16T10:06:55;20.80;99.90
7842;DHT22;3966;51.052;13.820;2022-10-16T10:09:44;21.00;99.90
7842;DHT22;3966;51.052;13.820;2022-10-16T10:14:56;21.40;99.90
7842;DHT22;3966;51.052;13.820;2022-10-16T10:17:24;21.50;99.90
7842;DHT22;3966;51.052;13.820;2022-10-16T10:20:01;21.40;99.90
7842;DHT22;3966;51.052;13.820;2022-10-16T10:22:40;21.30;99.90
7842;DHT22;3966;51.052;13.820;2022-10-16T10:32:45;21.40;99.90
7842;DHT22;3966;51.052;13.820;2022-10-16T10:35:25;21.40;99.90
7842;DHT22;3966;51.052;13.820;2022-10-16T10:40:51;21.80;99.90
7842;DHT22;3966;51.052;13.820;2022-10-16T10:46:19;21.80;99.90
7842;DHT22;3966;51.052;13.820;2022-10-16T10:48:54;21.90;99.90
7842;DHT22;3966;51.052;13.820;2022-10-16T10:51:44;22.00;99.90
7842;DHT22;3966;51.052;13.820;2022-10-16T10:56:59;22.50;99.90
7842;DHT22;3966;51.052;13.820;2022-10-16T11:02:40;22.70;99.90
7842;DHT22;3966;51.052;13.820;2022-10-16T11:05:21;22.70;99.90
7842;DHT22;3966;51.052;13.820;2022-10-16T11:08:00;22.70;99.90
7842;DHT22;3966;51.052;13.820;2022-10-16T11:10:47;22.60;99.90
7842;DHT22;3966;51.052;13.820;2022-10-16T11:15:55;22.70;99.90
7842;DHT22;3966;51.052;13.820;2022-10-16T11:21:12;22.70;99.90
7842;DHT22;3966;51.052;13.820;2022-10-16T11:24:03;22.40;99.90
7842;DHT22;3966;51.052;13.820;2022-10-16T11:26:34;22.20;99.90
7842;DHT22;3966;51.052;13.820;2022-10-16T11:29:02;22.50;99.90
7842;DHT22;3966;51.052;13.820;2022-10-16T11:31:36;22.60;99.90
7842;DHT22;3966;51.052;13.820;2022-10-16T11:37:02;22.60;99.90
7842;DHT22;3966;51.052;13.820;2022-10-16T11:39:31;22.40;99.90
7842;DHT22;3966;51.052;13.820;2022-10-16T11:42:21;22.50;99.90
7842;DHT22;3966;51.052;13.820;2022-10-16T11:50:05;22.50;99.90
7842;DHT22;3966;51.052;13.820;2022-10-16T11:52:55;22.60;99.90
7842;DHT22;3966;51.052;13.820;2022-10-16T11:55:27;22.20;99.90
7842;DHT22;3966;51.052;13.820;2022-10-16T12:00:42;22.20;99.90
7842;DHT22;3966;51.052;13.820;2022-10-16T12:03:21;22.30;99.90
7842;DHT22;3966;51.052;13.820;2022-10-16T12:06:30;22.60;99.90
7842;DHT22;3966;51.052;13.820;2022-10-16T12:08:59;22.60;99.90
7842;DHT22;3966;51.052;13.820;2022-10-16T12:16:55;22.60;99.90
7842;DHT22;3966;51.052;13.820;2022-10-16T12:19:23;22.70;99.90
7842;DHT22;3966;51.052;13.820;2022-10-16T12:21:51;23.00;99.90
7842;DHT22;3966;51.052;13.820;2022-10-16T12:24:36;23.00;99.90
7842;DHT22;3966;51.052;13.820;2022-10-16T12:27:04;22.80;99.90
7842;DHT22;3966;51.052;13.820;2022-10-16T12:29:41;22.90;99.90
7842;DHT22;3966;51.052;13.820;2022-10-16T12:32:30;22.90;99.90
7842;DHT22;3966;51.052;13.820;2022-10-16T12:34:57;22.70;99.90
7842;DHT22;3966;51.052;13.820;2022-10-16T12:37:24;22.50;99.90
7842;DHT22;3966;51.052;13.820;2022-10-16T12:39:52;22.50;99.90
7842;DHT22;3966;51.052;13.820;2022-10-16T12:44:53;22.90;99.90
7842;DHT22;3966;51.052;13.820;2022-10-16T12:47:34;22.90;99.90
7842;DHT22;3966;51.052;13.820;2022-10-16T12:50:00;23.00;99.90
7842;DHT22;3966;51.052;13.820;2022-10-16T12:52:27;22.90;99.90
7842;DHT22;3966;51.052;13.820;2022-10-16T12:54:56;22.90;99.90
7842;DHT22;3966;51.052;13.820;2022-10-16T12:57:56;22.90;99.90
7842;DHT22;3966;51.052;13.820;2022-10-16T13:00:37;22.90;99.90
7842;DHT22;3966;51.052;13.820;2022-10-16T13:03:34;23.20;99.90
7842;DHT22;3966;51.052;13.820;2022-10-16T13:11:57;23.40;99.90
7842;DHT22;3966;51.052;13.820;2022-10-16T13:14:44;23.30;99.90
7842;DHT22;3966;51.052;13.820;2022-10-16T13:17:27;23.10;99.90
7842;DHT22;3966;51.052;13.820;2022-10-16T13:27:41;22.70;99.90
7842;DHT22;3966;51.052;13.820;2022-10-16T13:30:12;22.70;99.90
7842;DHT22;3966;51.052;13.820;2022-10-16T13:32:39;22.70;99.90
7842;DHT22;3966;51.052;13.820;2022-10-16T13:35:26;22.80;99.90
7842;DHT22;3966;51.052;13.820;2022-10-16T13:40:28;22.60;99.90
7842;DHT22;3966;51.052;13.820;2022-10-16T13:42:54;22.50;99.90
7842;DHT22;3966;51.052;13.820;2022-10-16T13:45:23;22.50;99.90
7842;DHT22;3966;51.052;13.820;2022-10-16T13:47:49;22.30;99.90
7842;DHT22;3966;51.052;13.820;2022-10-16T13:50:16;22.30;99.90
7842;DHT22;3966;51.052;13.820;2022-10-16T13:52:42;22.20;99.90
7842;DHT22;3966;51.052;13.820;2022-10-16T13:55:17;22.20;99.90
7842;DHT22;3966;51.052;13.820;2022-10-16T13:57:43;22.10;99.90
7842;DHT22;3966;51.052;13.820;2022-10-16T14:00:21;21.80;99.90
7842;DHT22;3966;51.052;13.820;2022-10-16T14:02:55;21.50;99.90
7842;DHT22;3966;51.052;13.820;2022-10-16T14:05:22;21.30;99.90
7842;DHT22;3966;51.052;13.820;2022-10-16T14:07:50;21.20;99.90
7842;DHT22;3966;51.052;13.820;2022-10-16T14:10:31;21.20;99.90
7842;DHT22;3966;51.052;13.820;2022-10-16T14:13:05;21.20;99.90
7842;DHT22;3966;51.052;13.820;2022-10-16T14:15:33;21.10;99.90
7842;DHT22;3966;51.052;13.820;2022-10-16T14:17:59;21.10;99.90
7842;DHT22;3966;51.052;13.820;2022-10-16T14:20:33;21.00;99.90
7842;DHT22;3966;51.052;13.820;2022-10-16T14:25:43;20.80;99.90
7842;DHT22;3966;51.052;13.820;2022-10-16T14:28:17;20.80;99.90
7842;DHT22;3966;51.052;13.820;2022-10-16T14:31:00;20.80;99.90
7842;DHT22;3966;51.052;13.820;2022-10-16T14:36:04;20.70;99.90
7842;DHT22;3966;51.052;13.820;2022-10-16T14:38:31;20.80;99.90
7842;DHT22;3966;51.052;13.820;2022-10-16T14:40:58;20.70;99.90
7842;DHT22;3966;51.052;13.820;2022-10-16T14:43:31;20.70;99.90
7842;DHT22;3966;51.052;13.820;2022-10-16T14:45:58;20.70;99.90
7842;DHT22;3966;51.052;13.820;2022-10-16T14:48:24;20.70;99.90
7842;DHT22;3966;51.052;13.820;2022-10-16T14:50:53;20.70;99.90
7842;DHT22;3966;51.052;13.820;2022-10-16T14:53:18;20.70;99.90
7842;DHT22;3966;51.052;13.820;2022-10-16T14:55:44;20.70;99.90
7842;DHT22;3966;51.052;13.820;2022-10-16T14:58:19;20.70;99.90
7842;DHT22;3966;51.052;13.820;2022-10-16T15:00:45;20.50;99.90
7842;DHT22;3966;51.052;13.820;2022-10-16T15:03:11;20.50;99.90
7842;DHT22;3966;51.052;13.820;2022-10-16T15:05:37;20.50;99.90
7842;DHT22;3966;51.052;13.820;2022-10-16T15:08:03;20.50;99.90
7842;DHT22;3966;51.052;13.820;2022-10-16T15:10:31;20.60;99.90
7842;DHT22;3966;51.052;13.820;2022-10-16T15:13:01;20.60;99.90
7842;DHT22;3966;51.052;13.820;2022-10-16T15:15:38;20.80;99.90
7842;DHT22;3966;51.052;13.820;2022-10-16T15:18:05;21.30;99.90
7842;DHT22;3966;51.052;13.820;2022-10-16T15:20:33;22.00;99.90
7842;DHT22;3966;51.052;13.820;2022-10-16T15:23:04;22.50;99.90
7842;DHT22;3966;51.052;13.820;2022-10-16T15:25:47;22.80;99.90
7842;DHT22;3966;51.052;13.820;2022-10-16T15:28:14;22.80;99.90
7842;DHT22;3966;51.052;13.820;2022-10-16T15:30:40;22.50;99.90
7842;DHT22;3966;51.052;13.820;2022-10-16T15:33:15;22.20;99.90
7842;DHT22;3966;51.052;13.820;2022-10-16T15:35:40;21.80;99.90
7842;DHT22;3966;51.052;13.820;2022-10-16T15:38:08;21.50;99.90
7842;DHT22;3966;51.052;13.820;2022-10-16T15:40:34;21.30;99.90
7842;DHT22;3966;51.052;13.820;2022-10-16T15:42:59;20.90;99.90
7842;DHT22;3966;51.052;13.820;2022-10-16T15:45:25;20.70;99.90
7842;DHT22;3966;51.052;13.820;2022-10-16T15:47:50;20.50;99.90
7842;DHT22;3966;51.052;13.820;2022-10-16T15:50:16;20.40;99.90
7842;DHT22;3966;51.052;13.820;2022-10-16T15:52:42;20.30;99.90
7842;DHT22;3966;51.052;13.820;2022-10-16T15:55:12;20.30;99.90
7842;DHT22;3966;51.052;13.820;2022-10-16T15:57:38;20.30;99.90
7842;DHT22;3966;51.052;13.820;2022-10-16T16:00:14;20.20;99.90
7842;DHT22;3966;51.052;13.820;2022-10-16T16:02:41;20.10;99.90
7842;DHT22;3966;51.052;13.820;2022-10-16T16:05:08;20.10;99.90
7842;DHT22;3966;51.052;13.820;2022-10-16T16:07:35;20.00;99.90
7842;DHT22;3966;51.052;13.820;2022-10-16T16:10:02;19.90;99.90
7842;DHT22;3966;51.052;13.820;2022-10-16T16:12:29;19.80;99.90
7842;DHT22;3966;51.052;13.820;2022-10-16T16:14:54;19.80;99.90
7842;DHT22;3966;51.052;13.820;2022-10-16T16:17:20;19.80;99.90
7842;DHT22;3966;51.052;13.820;2022-10-16T16:19:46;19.70;99.90
7842;DHT22;3966;51.052;13.820;2022-10-16T16:22:11;19.70;99.90
7842;DHT22;3966;51.052;13.820;2022-10-16T16:24:37;19.60;99.90
7842;DHT22;3966;51.052;13.820;2022-10-16T16:27:02;19.50;99.90
7842;DHT22;3966;51.052;13.820;2022-10-16T16:29:28;19.40;99.90
7842;DHT22;3966;51.052;13.820;2022-10-16T16:31:53;19.10;99.90
7842;DHT22;3966;51.052;13.820;2022-10-16T16:34:24;19.10;99.90
7842;DHT22;3966;51.052;13.820;2022-10-16T16:36:50;19.10;99.90
7842;DHT22;3966;51.052;13.820;2022-10-16T16:39:15;19.00;99.90
7842;DHT22;3966;51.052;13.820;2022-10-16T16:41:41;18.80;99.90
7842;DHT22;3966;51.052;13.820;2022-10-16T16:44:09;18.90;99.90
7842;DHT22;3966;51.052;13.820;2022-10-16T16:46:35;18.80;99.90
7842;DHT22;3966;51.052;13.820;2022-10-16T16:49:02;18.80;99.90
7842;DHT22;3966;51.052;13.820;2022-10-16T16:51:28;18.90;99.90
7842;DHT22;3966;51.052;13.820;2022-10-16T16:53:54;18.80;99.90
7842;DHT22;3966;51.052;13.820;2022-10-16T16:56:21;18.90;99.90
7842;DHT22;3966;51.052;13.820;2022-10-16T16:58:48;18.70;99.90
7842;DHT22;3966;51.052;13.820;2022-10-16T17:01:14;18.60;99.90
7842;DHT22;3966;51.052;13.820;2022-10-16T17:03:43;18.60;99.90
7842;DHT22;3966;51.052;13.820;2022-10-16T17:06:13;18.50;99.90
7842;DHT22;3966;51.052;13.820;2022-10-16T17:08:40;18.50;99.90
7842;DHT22;3966;51.052;13.820;2022-10-16T17:11:11;18.60;99.90
7842;DHT22;3966;51.052;13.820;2022-10-16T17:13:37;18.70;99.90
7842;DHT22;3966;51.052;13.820;2022-10-16T17:16:04;18.60;99.90
7842;DHT22;3966;51.052;13.820;2022-10-16T17:18:31;18.50;99.90
7842;DHT22;3966;51.052;13.820;2022-10-16T17:21:05;18.40;99.90
7842;DHT22;3966;51.052;13.820;2022-10-16T17:23:33;18.60;99.90
7842;DHT22;3966;51.052;13.820;2022-10-16T17:26:14;18.30;99.90
7842;DHT22;3966;51.052;13.820;2022-10-16T17:28:40;18.20;99.90
7842;DHT22;3966;51.052;13.820;2022-10-16T17:33:35;18.50;99.90
7842;DHT22;3966;51.052;13.820;2022-10-16T17:36:01;18.50;99.90
7842;DHT22;3966;51.052;13.820;2022-10-16T17:38:27;18.50;99.90
7842;DHT22;3966;51.052;13.820;2022-10-16T17:40:52;18.50;99.90
7842;DHT22;3966;51.052;13.820;2022-10-16T17:43:18;18.40;99.90
7842;DHT22;3966;51.052;13.820;2022-10-16T17:45:43;18.50;99.90
7842;DHT22;3966;51.052;13.820;2022-10-16T17:48:09;18.40;99.90